sensor_id;sensor_type;location;lat;lon;timestamp;temperature;humidity
13684;DHT22;6914;53.552;9.908;2022-11-20T00:00:06;1.60;99.90
13684;DHT22;6914;53.552;9.908;2022-11-20T00:02:33;1.80;99.90
13684;DHT22;6914;53.552;9.908;2022-11-20T00:05:00;2.20;99.90
13684;DHT22;6914;53.552;9.908;2022-11-20T00:07:27;1.60;99.90
13684;DHT22;6914;53.552;9.908;2022-11-20T00:09:53;1.50;99.90
13684;DHT22;6914;53.552;9.908;2022-11-20T00:12:20;1.60;99.90
13684;DHT22;6914;53.552;9.908;2022-11-20T00:14:48;1.60;99.90
13684;DHT22;6914;53.552;9.908;2022-11-20T00:17:15;1.70;99.90
13684;DHT22;6914;53.552;9.908;2022-11-20T00:19:42;1.60;99.90
13684;DHT22;6914;53.552;9.908;2022-11-20T00:22:08;1.60;99.90
13684;DHT22;6914;53.552;9.908;2022-11-20T00:24:35;1.70;99.90
13684;DHT22;6914;53.552;9.908;2022-11-20T00:27:02;1.60;99.90
13684;DHT22;6914;53.552;9.908;2022-11-20T00:29:28;2.20;99.90
13684;DHT22;6914;53.552;9.908;2022-11-20T00:31:56;1.60;99.90
13684;DHT22;6914;53.552;9.908;2022-11-20T00:34:23;1.60;99.90
13684;DHT22;6914;53.552;9.908;2022-11-20T00:36:50;1.80;99.90
13684;DHT22;6914;53.552;9.908;2022-11-20T00:39:17;1.70;99.90
13684;DHT22;6914;53.552;9.908;2022-11-20T00:41:43;1.70;99.90
13684;DHT22;6914;53.552;9.908;2022-11-20T00:44:10;1.50;99.90
13684;DHT22;6914;53.552;9.908;2022-11-20T00:46:37;1.60;99.90
13684;DHT22;6914;53.552;9.908;2022-11-20T00:49:05;1.60;99.90
13684;DHT22;6914;53.552;9.908;2022-11-20T00:51:31;1.60;99.90
13684;DHT22;6914;53.552;9.908;2022-11-20T00:53:58;1.70;99.90
13684;DHT22;6914;53.552;9.908;2022-11-20T00:56:27;1.50;99.90
13684;DHT22;6914;53.552;9.908;2022-11-20T00:58:54;1.70;99.90
13684;DHT22;6914;53.552;9.908;2022-11-20T01:01:22;1.70;99.90
13684;DHT22;6914;53.552;9.908;2022-11-20T01:03:50;1.60;99.90
13684;DHT22;6914;53.552;9.908;2022-11-20T01:06:20;1.60;99.90
13684;DHT22;6914;53.552;9.908;2022-11-20T01:08:48;1.60;99.90
13684;DHT22;6914;53.552;9.908;2022-11-20T01:11:17;1.70;99.90
13684;DHT22;6914;53.552;9.908;2022-11-20T01:13:44;1.70;99.90
13684;DHT22;6914;53.552;9.908;2022-11-20T01:16:13;1.60;99.90
13684;DHT22;6914;53.552;9.908;2022-11-20T01:18:42;1.60;99.90
13684;DHT22;6914;53.552;9.908;2022-11-20T01:21:10;1.60;99.90
13684;DHT22;6914;53.552;9.908;2022-11-20T01:23:41;1.50;99.90
13684;DHT22;6914;53.552;9.908;2022-11-20T01:26:10;1.40;99.90
13684;DHT22;6914;53.552;9.908;2022-11-20T01:28:37;1.60;99.90
13684;DHT22;6914;53.552;9.908;2022-11-20T01:31:11;1.60;99.90
13684;DHT22;6914;53.552;9.908;2022-11-20T01:33:39;1.70;99.90
13684;DHT22;6914;53.552;9.908;2022-11-20T01:36:06;1.70;99.90
13684;DHT22;6914;53.552;9.908;2022-11-20T01:38:33;1.80;99.90
13684;DHT22;6914;53.552;9.908;2022-11-20T01:41:02;1.80;99.90
13684;DHT22;6914;53.552;9.908;2022-11-20T01:43:28;1.90;99.90
13684;DHT22;6914;53.552;9.908;2022-11-20T01:48:52;1.90;99.90
13684;DHT22;6914;53.552;9.908;2022-11-20T01:51:25;1.70;99.90
13684;DHT22;6914;53.552;9.908;2022-11-20T01:53:54;1.70;99.90
13684;DHT22;6914;53.552;9.908;2022-11-20T01:56:24;1.70;99.90
13684;DHT22;6914;53.552;9.908;2022-11-20T01:58:55;1.80;99.90
13684;DHT22;6914;53.552;9.908;2022-11-20T02:01:23;1.70;99.90
13684;DHT22;6914;53.552;9.908;2022-11-20T02:03:50;1.70;99.90
13684;DHT22;6914;53.552;9.908;2022-11-20T02:06:20;1.70;99.90
13684;DHT22;6914;53.552;9.908;2022-11-20T02:08:49;1.70;99.90
13684;DHT22;6914;53.552;9.908;2022-11-20T02:11:17;1.70;99.90
13684;DHT22;6914;53.552;9.908;2022-11-20T02:13:45;1.60;99.90
13684;DHT22;6914;53.552;9.908;2022-11-20T02:16:18;1.70;99.90
13684;DHT22;6914;53.552;9.908;2022-11-20T02:18:46;1.60;99.90
13684;DHT22;6914;53.552;9.908;2022-11-20T02:21:19;1.50;99.90
13684;DHT22;6914;53.552;9.908;2022-11-20T02:24:10;1.70;99.90
13684;DHT22;6914;53.552;9.908;2022-11-20T02:26:47;2.30;99.90
13684;DHT22;6914;53.552;9.908;2022-11-20T02:29:17;1.70;99.90
13684;DHT22;6914;53.552;9.908;2022-11-20T02:31:46;1.50;99.90
13684;DHT22;6914;53.552;9.908;2022-11-20T02:34:13;1.70;99.90
13684;DHT22;6914;53.552;9.908;2022-11-20T02:36:41;1.60;99.90
13684;DHT22;6914;53.552;9.908;2022-11-20T02:39:11;1.60;99.90
13684;DHT22;6914;53.552;9.908;2022-11-20T02:41:42;1.50;99.90
13684;DHT22;6914;53.552;9.908;2022-11-20T02:44:09;4.90;99.90
13684;DHT22;6914;53.552;9.908;2022-11-20T02:46:36;1.60;99.90
13684;DHT22;6914;53.552;9.908;2022-11-20T02:49:03;1.70;99.90
13684;DHT22;6914;53.552;9.908;2022-11-20T02:51:31;1.60;99.90
13684;DHT22;6914;53.552;9.908;2022-11-20T02:53:58;1.50;99.90
13684;DHT22;6914;53.552;9.908;2022-11-20T02:56:26;1.40;99.90
13684;DHT22;6914;53.552;9.908;2022-11-20T02:58:53;1.50;99.90
13684;DHT22;6914;53.552;9.908;2022-11-20T03:01:20;1.50;99.90
13684;DHT22;6914;53.552;9.908;2022-11-20T03:03:46;1.30;99.90
13684;DHT22;6914;53.552;9.908;2022-11-20T03:06:14;1.50;99.90
13684;DHT22;6914;53.552;9.908;2022-11-20T03:08:41;1.50;99.90
13684;DHT22;6914;53.552;9.908;2022-11-20T03:11:08;1.90;99.90
13684;DHT22;6914;53.552;9.908;2022-11-20T03:13:36;1.20;99.90
13684;DHT22;6914;53.552;9.908;2022-11-20T03:16:07;1.40;99.90
13684;DHT22;6914;53.552;9.908;2022-11-20T03:18:35;1.50;99.90
13684;DHT22;6914;53.552;9.908;2022-11-20T03:21:01;1.90;99.90
13684;DHT22;6914;53.552;9.908;2022-11-20T03:23:29;1.30;99.90
13684;DHT22;6914;53.552;9.908;2022-11-20T03:26:07;1.40;99.90
13684;DHT22;6914;53.552;9.908;2022-11-20T03:28:35;1.40;99.90
13684;DHT22;6914;53.552;9.908;2022-11-20T03:31:06;1.50;99.90
13684;DHT22;6914;53.552;9.908;2022-11-20T03:33:32;1.50;99.90
13684;DHT22;6914;53.552;9.908;2022-11-20T03:36:01;1.40;99.90
13684;DHT22;6914;53.552;9.908;2022-11-20T03:38:28;1.40;99.90
13684;DHT22;6914;53.552;9.908;2022-11-20T03:40:58;2.30;99.90
13684;DHT22;6914;53.552;9.908;2022-11-20T03:43:25;1.30;99.90
13684;DHT22;6914;53.552;9.908;2022-11-20T03:45:53;1.70;99.90
13684;DHT22;6914;53.552;9.908;2022-11-20T03:48:20;1.30;99.90
13684;DHT22;6914;53.552;9.908;2022-11-20T03:50:47;1.40;99.90
13684;DHT22;6914;53.552;9.908;2022-11-20T03:53:14;1.30;99.90
13684;DHT22;6914;53.552;9.908;2022-11-20T03:55:41;1.20;99.90
13684;DHT22;6914;53.552;9.908;2022-11-20T03:58:08;1.30;99.90
13684;DHT22;6914;53.552;9.908;2022-11-20T04:00:34;1.30;99.90
13684;DHT22;6914;53.552;9.908;2022-11-20T04:03:03;1.50;99.90
13684;DHT22;6914;53.552;9.908;2022-11-20T04:05:30;1.30;99.90
13684;DHT22;6914;53.552;9.908;2022-11-20T04:07:59;1.30;99.90
13684;DHT22;6914;53.552;9.908;2022-11-20T04:10:25;1.20;99.90
13684;DHT22;6914;53.552;9.908;2022-11-20T04:12:52;1.30;99.90
13684;DHT22;6914;53.552;9.908;2022-11-20T04:15:19;1.30;99.90
13684;DHT22;6914;53.552;9.908;2022-11-20T04:17:46;0.90;99.90
13684;DHT22;6914;53.552;9.908;2022-11-20T04:20:14;1.60;99.90
13684;DHT22;6914;53.552;9.908;2022-11-20T04:22:41;1.20;99.90
13684;DHT22;6914;53.552;9.908;2022-11-20T04:25:08;1.30;99.90
13684;DHT22;6914;53.552;9.908;2022-11-20T04:27:35;1.20;99.90
13684;DHT22;6914;53.552;9.908;2022-11-20T04:30:02;1.30;99.90
13684;DHT22;6914;53.552;9.908;2022-11-20T04:32:28;1.30;99.90
13684;DHT22;6914;53.552;9.908;2022-11-20T04:34:55;1.20;99.90
13684;DHT22;6914;53.552;9.908;2022-11-20T04:37:23;1.20;99.90
13684;DHT22;6914;53.552;9.908;2022-11-20T04:39:50;1.20;99.90
13684;DHT22;6914;53.552;9.908;2022-11-20T04:42:16;1.40;99.90
13684;DHT22;6914;53.552;9.908;2022-11-20T04:44:56;1.30;99.90
13684;DHT22;6914;53.552;9.908;2022-11-20T04:47:22;1.30;99.90
13684;DHT22;6914;53.552;9.908;2022-11-20T04:49:49;1.20;99.90
13684;DHT22;6914;53.552;9.908;2022-11-20T04:52:16;2.10;99.90
13684;DHT22;6914;53.552;9.908;2022-11-20T04:54:44;2.10;99.90
13684;DHT22;6914;53.552;9.908;2022-11-20T04:57:13;0.80;99.90
13684;DHT22;6914;53.552;9.908;2022-11-20T04:59:40;1.10;99.90
13684;DHT22;6914;53.552;9.908;2022-11-20T05:02:06;1.20;99.90
13684;DHT22;6914;53.552;9.908;2022-11-20T05:04:33;1.30;99.90
13684;DHT22;6914;53.552;9.908;2022-11-20T05:07:00;1.20;99.90
13684;DHT22;6914;53.552;9.908;2022-11-20T05:09:27;1.10;99.90
13684;DHT22;6914;53.552;9.908;2022-11-20T05:11:55;0.80;99.90
13684;DHT22;6914;53.552;9.908;2022-11-20T05:14:21;1.30;99.90
13684;DHT22;6914;53.552;9.908;2022-11-20T05:16:48;1.10;99.90
13684;DHT22;6914;53.552;9.908;2022-11-20T05:19:15;1.10;99.90
13684;DHT22;6914;53.552;9.908;2022-11-20T05:21:41;0.70;99.90
13684;DHT22;6914;53.552;9.908;2022-11-20T05:24:08;1.10;99.90
13684;DHT22;6914;53.552;9.908;2022-11-20T05:26:35;1.10;99.90
13684;DHT22;6914;53.552;9.908;2022-11-20T05:29:04;0.90;99.90
13684;DHT22;6914;53.552;9.908;2022-11-20T05:31:30;1.00;99.90
13684;DHT22;6914;53.552;9.908;2022-11-20T05:33:57;0.90;99.90
13684;DHT22;6914;53.552;9.908;2022-11-20T05:36:24;1.00;99.90
13684;DHT22;6914;53.552;9.908;2022-11-20T05:38:51;0.90;99.90
13684;DHT22;6914;53.552;9.908;2022-11-20T05:41:19;1.00;99.90
13684;DHT22;6914;53.552;9.908;2022-11-20T05:43:47;0.80;99.90
13684;DHT22;6914;53.552;9.908;2022-11-20T05:46:18;0.80;99.90
13684;DHT22;6914;53.552;9.908;2022-11-20T05:48:46;0.80;99.90
13684;DHT22;6914;53.552;9.908;2022-11-20T05:51:15;0.90;99.90
13684;DHT22;6914;53.552;9.908;2022-11-20T05:53:43;0.80;99.90
13684;DHT22;6914;53.552;9.908;2022-11-20T05:56:12;0.80;99.90
13684;DHT22;6914;53.552;9.908;2022-11-20T05:58:39;0.90;99.90
13684;DHT22;6914;53.552;9.908;2022-11-20T06:01:07;1.00;99.90
13684;DHT22;6914;53.552;9.908;2022-11-20T06:03:36;0.80;99.90
13684;DHT22;6914;53.552;9.908;2022-11-20T06:06:04;1.30;99.90
13684;DHT22;6914;53.552;9.908;2022-11-20T06:08:31;0.90;99.90
13684;DHT22;6914;53.552;9.908;2022-11-20T06:10:58;0.80;99.90
13684;DHT22;6914;53.552;9.908;2022-11-20T06:13:29;0.70;99.90
13684;DHT22;6914;53.552;9.908;2022-11-20T06:15:55;0.90;99.90
13684;DHT22;6914;53.552;9.908;2022-11-20T06:18:22;0.80;99.90
13684;DHT22;6914;53.552;9.908;2022-11-20T06:20:59;0.80;99.90
13684;DHT22;6914;53.552;9.908;2022-11-20T06:23:28;0.80;99.90
13684;DHT22;6914;53.552;9.908;2022-11-20T06:25:55;1.00;99.90
13684;DHT22;6914;53.552;9.908;2022-11-20T06:28:21;0.80;99.90
13684;DHT22;6914;53.552;9.908;2022-11-20T06:30:48;1.20;99.90
13684;DHT22;6914;53.552;9.908;2022-11-20T06:33:15;0.70;99.90
13684;DHT22;6914;53.552;9.908;2022-11-20T06:35:41;0.80;99.90
13684;DHT22;6914;53.552;9.908;2022-11-20T06:38:10;0.70;99.90
13684;DHT22;6914;53.552;9.908;2022-11-20T06:40:39;0.70;99.90
13684;DHT22;6914;53.552;9.908;2022-11-20T06:43:06;0.80;99.90
13684;DHT22;6914;53.552;9.908;2022-11-20T06:45:33;0.70;99.90
13684;DHT22;6914;53.552;9.908;2022-11-20T06:47:59;0.70;99.90
13684;DHT22;6914;53.552;9.908;2022-11-20T06:50:26;0.70;99.90
13684;DHT22;6914;53.552;9.908;2022-11-20T06:52:53;1.40;99.90
13684;DHT22;6914;53.552;9.908;2022-11-20T06:55:21;0.80;99.90
13684;DHT22;6914;53.552;9.908;2022-11-20T06:57:48;0.70;99.90
13684;DHT22;6914;53.552;9.908;2022-11-20T07:00:15;1.10;99.90
13684;DHT22;6914;53.552;9.908;2022-11-20T07:02:41;0.80;99.90
13684;DHT22;6914;53.552;9.908;2022-11-20T07:05:08;0.70;99.90
13684;DHT22;6914;53.552;9.908;2022-11-20T07:07:35;0.70;99.90
13684;DHT22;6914;53.552;9.908;2022-11-20T07:10:01;0.70;99.90
13684;DHT22;6914;53.552;9.908;2022-11-20T07:12:30;0.70;99.90
13684;DHT22;6914;53.552;9.908;2022-11-20T07:14:57;0.70;99.90
13684;DHT22;6914;53.552;9.908;2022-11-20T07:17:24;0.60;99.90
13684;DHT22;6914;53.552;9.908;2022-11-20T07:19:50;0.70;99.90
13684;DHT22;6914;53.552;9.908;2022-11-20T07:22:17;0.70;99.90
13684;DHT22;6914;53.552;9.908;2022-11-20T07:24:46;0.60;99.90
13684;DHT22;6914;53.552;9.908;2022-11-20T07:27:13;0.70;99.90
13684;DHT22;6914;53.552;9.908;2022-11-20T07:29:41;0.90;99.90
13684;DHT22;6914;53.552;9.908;2022-11-20T07:32:08;0.60;99.90
13684;DHT22;6914;53.552;9.908;2022-11-20T07:34:35;0.70;99.90
13684;DHT22;6914;53.552;9.908;2022-11-20T07:37:02;0.60;99.90
13684;DHT22;6914;53.552;9.908;2022-11-20T07:39:28;0.70;99.90
13684;DHT22;6914;53.552;9.908;2022-11-20T07:41:55;0.70;99.90
13684;DHT22;6914;53.552;9.908;2022-11-20T07:44:22;0.60;99.90
13684;DHT22;6914;53.552;9.908;2022-11-20T07:46:50;0.80;99.90
13684;DHT22;6914;53.552;9.908;2022-11-20T07:49:16;0.90;99.90
13684;DHT22;6914;53.552;9.908;2022-11-20T07:51:43;1.00;99.90
13684;DHT22;6914;53.552;9.908;2022-11-20T07:54:10;1.00;99.90
13684;DHT22;6914;53.552;9.908;2022-11-20T07:56:36;1.10;99.90
13684;DHT22;6914;53.552;9.908;2022-11-20T07:59:03;1.00;99.90
13684;DHT22;6914;53.552;9.908;2022-11-20T08:01:30;1.30;99.90
13684;DHT22;6914;53.552;9.908;2022-11-20T08:03:58;1.60;99.90
13684;DHT22;6914;53.552;9.908;2022-11-20T08:06:25;1.20;99.90
13684;DHT22;6914;53.552;9.908;2022-11-20T08:08:51;1.20;99.90
13684;DHT22;6914;53.552;9.908;2022-11-20T08:11:18;1.60;99.90
13684;DHT22;6914;53.552;9.908;2022-11-20T08:14:03;1.70;99.90
13684;DHT22;6914;53.552;9.908;2022-11-20T08:16:38;1.40;99.90
13684;DHT22;6914;53.552;9.908;2022-11-20T08:19:07;1.40;99.90
13684;DHT22;6914;53.552;9.908;2022-11-20T08:21:33;1.60;99.90
13684;DHT22;6914;53.552;9.908;2022-11-20T08:24:00;1.40;99.90
13684;DHT22;6914;53.552;9.908;2022-11-20T08:26:27;2.90;99.90
13684;DHT22;6914;53.552;9.908;2022-11-20T08:28:54;2.70;99.90
13684;DHT22;6914;53.552;9.908;2022-11-20T08:31:22;1.50;99.90
13684;DHT22;6914;53.552;9.908;2022-11-20T08:33:49;1.60;99.90
13684;DHT22;6914;53.552;9.908;2022-11-20T08:36:18;1.50;99.90
13684;DHT22;6914;53.552;9.908;2022-11-20T08:38:47;1.60;99.90
13684;DHT22;6914;53.552;9.908;2022-11-20T08:41:15;1.70;99.90
13684;DHT22;6914;53.552;9.908;2022-11-20T08:43:52;1.70;99.90
13684;DHT22;6914;53.552;9.908;2022-11-20T08:46:19;1.60;99.90
13684;DHT22;6914;53.552;9.908;2022-11-20T08:48:46;1.70;99.90
13684;DHT22;6914;53.552;9.908;2022-11-20T08:51:14;1.90;99.90
13684;DHT22;6914;53.552;9.908;2022-11-20T08:53:42;1.70;99.90
13684;DHT22;6914;53.552;9.908;2022-11-20T08:56:09;1.80;99.90
13684;DHT22;6914;53.552;9.908;2022-11-20T08:58:36;1.80;99.90
13684;DHT22;6914;53.552;9.908;2022-11-20T09:01:04;1.80;99.90
13684;DHT22;6914;53.552;9.908;2022-11-20T09:03:30;2.00;99.90
13684;DHT22;6914;53.552;9.908;2022-11-20T09:05:58;2.00;99.90
13684;DHT22;6914;53.552;9.908;2022-11-20T09:08:25;1.90;99.90
13684;DHT22;6914;53.552;9.908;2022-11-20T09:10:54;2.10;99.90
13684;DHT22;6914;53.552;9.908;2022-11-20T09:13:22;2.00;99.90
13684;DHT22;6914;53.552;9.908;2022-11-20T09:15:53;2.00;99.90
13684;DHT22;6914;53.552;9.908;2022-11-20T09:18:20;2.20;99.90
13684;DHT22;6914;53.552;9.908;2022-11-20T09:20:48;2.30;99.90
13684;DHT22;6914;53.552;9.908;2022-11-20T09:23:15;2.20;99.90
13684;DHT22;6914;53.552;9.908;2022-11-20T09:25:42;2.70;99.90
13684;DHT22;6914;53.552;9.908;2022-11-20T09:28:10;2.80;99.90
13684;DHT22;6914;53.552;9.908;2022-11-20T09:30:37;3.30;99.90
13684;DHT22;6914;53.552;9.908;2022-11-20T09:33:04;3.80;99.90
13684;DHT22;6914;53.552;9.908;2022-11-20T09:35:31;4.20;99.90
13684;DHT22;6914;53.552;9.908;2022-11-20T09:37:58;4.40;99.90
13684;DHT22;6914;53.552;9.908;2022-11-20T09:40:26;4.10;99.90
13684;DHT22;6914;53.552;9.908;2022-11-20T09:42:58;4.80;99.90
13684;DHT22;6914;53.552;9.908;2022-11-20T09:45:40;4.90;99.90
13684;DHT22;6914;53.552;9.908;2022-11-20T09:48:20;5.50;99.90
13684;DHT22;6914;53.552;9.908;2022-11-20T09:50:57;4.30;99.90
13684;DHT22;6914;53.552;9.908;2022-11-20T09:53:33;4.10;99.90
13684;DHT22;6914;53.552;9.908;2022-11-20T09:56:03;4.20;99.90
13684;DHT22;6914;53.552;9.908;2022-11-20T09:58:33;4.60;99.90
13684;DHT22;6914;53.552;9.908;2022-11-20T10:01:10;5.90;99.90
13684;DHT22;6914;53.552;9.908;2022-11-20T10:03:44;6.80;99.90
13684;DHT22;6914;53.552;9.908;2022-11-20T10:06:16;7.50;99.90
13684;DHT22;6914;53.552;9.908;2022-11-20T10:08:45;7.50;99.90
13684;DHT22;6914;53.552;9.908;2022-11-20T10:11:20;7.40;99.90
13684;DHT22;6914;53.552;9.908;2022-11-20T10:13:54;8.50;99.90
13684;DHT22;6914;53.552;9.908;2022-11-20T10:16:35;8.50;99.90
13684;DHT22;6914;53.552;9.908;2022-11-20T10:19:15;8.00;99.90
13684;DHT22;6914;53.552;9.908;2022-11-20T10:21:55;8.60;99.90
13684;DHT22;6914;53.552;9.908;2022-11-20T10:24:43;9.10;99.90
13684;DHT22;6914;53.552;9.908;2022-11-20T10:27:30;9.30;99.90
13684;DHT22;6914;53.552;9.908;2022-11-20T10:30:01;9.70;99.90
13684;DHT22;6914;53.552;9.908;2022-11-20T10:32:35;9.50;99.90
13684;DHT22;6914;53.552;9.908;2022-11-20T10:35:09;9.60;99.90
13684;DHT22;6914;53.552;9.908;2022-11-20T10:37:42;9.40;99.90
13684;DHT22;6914;53.552;9.908;2022-11-20T10:40:20;9.20;99.90
13684;DHT22;6914;53.552;9.908;2022-11-20T10:42:51;8.70;99.90
13684;DHT22;6914;53.552;9.908;2022-11-20T10:45:36;7.90;99.90
13684;DHT22;6914;53.552;9.908;2022-11-20T10:48:12;7.40;99.90
13684;DHT22;6914;53.552;9.908;2022-11-20T10:50:49;6.60;99.90
13684;DHT22;6914;53.552;9.908;2022-11-20T10:53:31;7.10;99.90
13684;DHT22;6914;53.552;9.908;2022-11-20T10:56:11;7.00;99.90
13684;DHT22;6914;53.552;9.908;2022-11-20T10:58:45;6.30;99.90
13684;DHT22;6914;53.552;9.908;2022-11-20T11:01:16;6.10;99.90
13684;DHT22;6914;53.552;9.908;2022-11-20T11:03:44;6.00;99.90
13684;DHT22;6914;53.552;9.908;2022-11-20T11:06:19;5.90;99.90
13684;DHT22;6914;53.552;9.908;2022-11-20T11:08:49;5.70;99.90
13684;DHT22;6914;53.552;9.908;2022-11-20T11:11:22;5.60;99.90
13684;DHT22;6914;53.552;9.908;2022-11-20T11:13:49;5.60;99.90
13684;DHT22;6914;53.552;9.908;2022-11-20T11:16:21;5.40;99.90
13684;DHT22;6914;53.552;9.908;2022-11-20T11:18:50;4.70;99.90
13684;DHT22;6914;53.552;9.908;2022-11-20T11:21:22;4.40;99.90
13684;DHT22;6914;53.552;9.908;2022-11-20T11:23:59;5.30;99.90
13684;DHT22;6914;53.552;9.908;2022-11-20T11:26:26;4.60;99.90
13684;DHT22;6914;53.552;9.908;2022-11-20T11:28:54;3.40;99.90
13684;DHT22;6914;53.552;9.908;2022-11-20T11:31:23;4.00;99.90
13684;DHT22;6914;53.552;9.908;2022-11-20T11:33:51;3.90;99.90
13684;DHT22;6914;53.552;9.908;2022-11-20T11:36:21;4.20;99.90
13684;DHT22;6914;53.552;9.908;2022-11-20T11:38:51;5.10;99.90
13684;DHT22;6914;53.552;9.908;2022-11-20T11:41:21;5.40;99.90
13684;DHT22;6914;53.552;9.908;2022-11-20T11:43:52;5.50;99.90
13684;DHT22;6914;53.552;9.908;2022-11-20T11:46:37;5.30;99.90
13684;DHT22;6914;53.552;9.908;2022-11-20T11:49:16;5.20;99.90
13684;DHT22;6914;53.552;9.908;2022-11-20T11:52:01;4.50;99.90
13684;DHT22;6914;53.552;9.908;2022-11-20T11:54:34;4.20;99.90
13684;DHT22;6914;53.552;9.908;2022-11-20T11:57:05;4.20;99.90
13684;DHT22;6914;53.552;9.908;2022-11-20T11:59:41;4.50;99.90
13684;DHT22;6914;53.552;9.908;2022-11-20T12:02:25;4.40;99.90
13684;DHT22;6914;53.552;9.908;2022-11-20T12:05:00;4.90;99.90
13684;DHT22;6914;53.552;9.908;2022-11-20T12:07:38;4.80;99.90
13684;DHT22;6914;53.552;9.908;2022-11-20T12:10:20;4.90;99.90
13684;DHT22;6914;53.552;9.908;2022-11-20T12:12:51;4.70;99.90
13684;DHT22;6914;53.552;9.908;2022-11-20T12:15:26;4.60;99.90
13684;DHT22;6914;53.552;9.908;2022-11-20T12:17:55;4.20;99.90
13684;DHT22;6914;53.552;9.908;2022-11-20T12:20:26;4.50;99.90
13684;DHT22;6914;53.552;9.908;2022-11-20T12:22:58;4.20;99.90
13684;DHT22;6914;53.552;9.908;2022-11-20T12:25:28;4.00;99.90
13684;DHT22;6914;53.552;9.908;2022-11-20T12:28:18;3.80;99.90
13684;DHT22;6914;53.552;9.908;2022-11-20T12:30:53;3.80;99.90
13684;DHT22;6914;53.552;9.908;2022-11-20T12:33:44;3.70;99.90
13684;DHT22;6914;53.552;9.908;2022-11-20T12:36:25;3.60;99.90
13684;DHT22;6914;53.552;9.908;2022-11-20T12:39:05;3.70;99.90
13684;DHT22;6914;53.552;9.908;2022-11-20T12:41:49;3.60;99.90
13684;DHT22;6914;53.552;9.908;2022-11-20T12:44:58;3.40;99.90
13684;DHT22;6914;53.552;9.908;2022-11-20T12:47:53;3.60;99.90
13684;DHT22;6914;53.552;9.908;2022-11-20T12:50:28;3.30;99.90
13684;DHT22;6914;53.552;9.908;2022-11-20T12:53:04;3.00;99.90
13684;DHT22;6914;53.552;9.908;2022-11-20T12:55:47;3.40;99.90
13684;DHT22;6914;53.552;9.908;2022-11-20T12:58:23;3.50;99.90
13684;DHT22;6914;53.552;9.908;2022-11-20T13:00:56;3.40;99.90
13684;DHT22;6914;53.552;9.908;2022-11-20T13:03:34;3.50;99.90
13684;DHT22;6914;53.552;9.908;2022-11-20T13:06:10;3.10;99.90
13684;DHT22;6914;53.552;9.908;2022-11-20T13:08:41;3.40;99.90
13684;DHT22;6914;53.552;9.908;2022-11-20T13:11:15;4.80;99.90
13684;DHT22;6914;53.552;9.908;2022-11-20T13:16:37;4.10;99.90
13684;DHT22;6914;53.552;9.908;2022-11-20T13:19:09;3.30;99.90
13684;DHT22;6914;53.552;9.908;2022-11-20T13:21:40;3.20;99.90
13684;DHT22;6914;53.552;9.908;2022-11-20T13:24:22;3.30;99.90
13684;DHT22;6914;53.552;9.908;2022-11-20T13:27:00;3.10;99.90
13684;DHT22;6914;53.552;9.908;2022-11-20T13:29:27;3.20;99.90
13684;DHT22;6914;53.552;9.908;2022-11-20T13:32:03;3.60;99.90
13684;DHT22;6914;53.552;9.908;2022-11-20T13:34:31;3.70;99.90
13684;DHT22;6914;53.552;9.908;2022-11-20T13:36:59;3.90;99.90
13684;DHT22;6914;53.552;9.908;2022-11-20T13:39:31;3.30;99.90
13684;DHT22;6914;53.552;9.908;2022-11-20T13:41:59;3.40;99.90
13684;DHT22;6914;53.552;9.908;2022-11-20T13:44:30;3.50;99.90
13684;DHT22;6914;53.552;9.908;2022-11-20T13:47:00;3.80;99.90
13684;DHT22;6914;53.552;9.908;2022-11-20T13:49:31;3.70;99.90
13684;DHT22;6914;53.552;9.908;2022-11-20T13:52:08;3.50;99.90
13684;DHT22;6914;53.552;9.908;2022-11-20T13:55:01;3.50;99.90
13684;DHT22;6914;53.552;9.908;2022-11-20T14:00:28;3.20;99.90
13684;DHT22;6914;53.552;9.908;2022-11-20T14:03:02;3.30;99.90
13684;DHT22;6914;53.552;9.908;2022-11-20T14:05:36;3.40;99.90
13684;DHT22;6914;53.552;9.908;2022-11-20T14:08:03;3.60;99.90
13684;DHT22;6914;53.552;9.908;2022-11-20T14:10:32;3.60;99.90
13684;DHT22;6914;53.552;9.908;2022-11-20T14:13:10;4.90;99.90
13684;DHT22;6914;53.552;9.908;2022-11-20T14:15:37;3.40;99.90
13684;DHT22;6914;53.552;9.908;2022-11-20T14:18:13;3.60;99.90
13684;DHT22;6914;53.552;9.908;2022-11-20T14:20:41;3.80;99.90
13684;DHT22;6914;53.552;9.908;2022-11-20T14:23:09;3.80;99.90
13684;DHT22;6914;53.552;9.908;2022-11-20T14:25:42;3.60;99.90
13684;DHT22;6914;53.552;9.908;2022-11-20T14:28:11;3.70;99.90
13684;DHT22;6914;53.552;9.908;2022-11-20T14:30:47;3.50;99.90
13684;DHT22;6914;53.552;9.908;2022-11-20T14:33:14;3.60;99.90
13684;DHT22;6914;53.552;9.908;2022-11-20T14:35:45;2.70;99.90
13684;DHT22;6914;53.552;9.908;2022-11-20T14:38:14;3.50;99.90
13684;DHT22;6914;53.552;9.908;2022-11-20T14:40:44;3.40;99.90
13684;DHT22;6914;53.552;9.908;2022-11-20T14:43:20;3.10;99.90
13684;DHT22;6914;53.552;9.908;2022-11-20T14:45:54;3.30;99.90
13684;DHT22;6914;53.552;9.908;2022-11-20T14:48:24;3.20;99.90
13684;DHT22;6914;53.552;9.908;2022-11-20T14:50:52;3.00;99.90
13684;DHT22;6914;53.552;9.908;2022-11-20T14:53:22;3.00;99.90
13684;DHT22;6914;53.552;9.908;2022-11-20T14:55:57;2.90;99.90
13684;DHT22;6914;53.552;9.908;2022-11-20T14:58:25;3.00;99.90
13684;DHT22;6914;53.552;9.908;2022-11-20T15:00:57;2.60;99.90
13684;DHT22;6914;53.552;9.908;2022-11-20T15:03:31;2.50;99.90
13684;DHT22;6914;53.552;9.908;2022-11-20T15:05:57;6.50;99.90
13684;DHT22;6914;53.552;9.908;2022-11-20T15:08:24;2.80;99.90
13684;DHT22;6914;53.552;9.908;2022-11-20T15:10:51;2.70;99.90
13684;DHT22;6914;53.552;9.908;2022-11-20T15:13:25;2.80;99.90
13684;DHT22;6914;53.552;9.908;2022-11-20T15:15:54;2.70;99.90
13684;DHT22;6914;53.552;9.908;2022-11-20T15:18:23;2.80;99.90
13684;DHT22;6914;53.552;9.908;2022-11-20T15:20:51;2.70;99.90
13684;DHT22;6914;53.552;9.908;2022-11-20T15:23:19;2.50;99.90
13684;DHT22;6914;53.552;9.908;2022-11-20T15:25:46;2.50;99.90
13684;DHT22;6914;53.552;9.908;2022-11-20T15:28:18;2.40;99.90
13684;DHT22;6914;53.552;9.908;2022-11-20T15:30:47;2.60;99.90
13684;DHT22;6914;53.552;9.908;2022-11-20T15:33:14;2.50;99.90
13684;DHT22;6914;53.552;9.908;2022-11-20T15:35:44;2.40;99.90
13684;DHT22;6914;53.552;9.908;2022-11-20T15:38:11;2.50;99.90
13684;DHT22;6914;53.552;9.908;2022-11-20T15:40:38;2.40;99.90
13684;DHT22;6914;53.552;9.908;2022-11-20T15:43:05;2.40;99.90
13684;DHT22;6914;53.552;9.908;2022-11-20T15:45:38;2.50;99.90
13684;DHT22;6914;53.552;9.908;2022-11-20T15:48:09;2.60;99.90
13684;DHT22;6914;53.552;9.908;2022-11-20T15:50:39;2.40;99.90
13684;DHT22;6914;53.552;9.908;2022-11-20T15:53:08;2.20;99.90
13684;DHT22;6914;53.552;9.908;2022-11-20T15:55:35;2.60;99.90
13684;DHT22;6914;53.552;9.908;2022-11-20T15:58:02;2.30;99.90
13684;DHT22;6914;53.552;9.908;2022-11-20T16:00:29;2.50;99.90
13684;DHT22;6914;53.552;9.908;2022-11-20T16:02:56;2.40;99.90
13684;DHT22;6914;53.552;9.908;2022-11-20T16:05:27;2.50;99.90
13684;DHT22;6914;53.552;9.908;2022-11-20T16:07:55;1.90;99.90
13684;DHT22;6914;53.552;9.908;2022-11-20T16:10:22;2.30;99.90
13684;DHT22;6914;53.552;9.908;2022-11-20T16:12:48;2.30;99.90
13684;DHT22;6914;53.552;9.908;2022-11-20T16:15:33;2.20;99.90
13684;DHT22;6914;53.552;9.908;2022-11-20T16:18:14;2.90;99.90
13684;DHT22;6914;53.552;9.908;2022-11-20T16:20:43;2.50;99.90
13684;DHT22;6914;53.552;9.908;2022-11-20T16:23:09;2.40;99.90
13684;DHT22;6914;53.552;9.908;2022-11-20T16:25:36;2.60;99.90
13684;DHT22;6914;53.552;9.908;2022-11-20T16:28:03;2.70;99.90